createdAt,value
2023-03-10T00:01:30.864Z,18.50
2023-03-10T00:04:01.434Z,21.50
2023-03-10T00:06:34.193Z,19.90
2023-03-10T00:09:02.055Z,16.60
2023-03-10T00:11:29.495Z,20.20
2023-03-10T00:13:57.156Z,20.10
2023-03-10T00:16:28.630Z,21.00
2023-03-10T00:18:56.365Z,18.30
2023-03-10T00:21:27.408Z,17.10
2023-03-10T00:23:55.011Z,14.40
2023-03-10T00:26:26.032Z,20.90
2023-03-10T00:28:54.381Z,19.60
2023-03-10T00:31:26.012Z,21.00
2023-03-10T00:33:56.004Z,27.00
2023-03-10T00:36:27.590Z,22.70
2023-03-10T00:38:56.708Z,22.30
2023-03-10T00:41:28.521Z,12.80
2023-03-10T00:43:55.883Z,18.60
2023-03-10T00:46:25.847Z,18.50
2023-03-10T00:48:53.713Z,18.70
2023-03-10T00:51:22.423Z,23.00
2023-03-10T00:53:50.347Z,19.80
2023-03-10T00:56:26.233Z,17.10
2023-03-10T00:58:57.667Z,15.30
2023-03-10T01:01:38.041Z,22.00
2023-03-10T01:04:13.814Z,22.80
2023-03-10T01:06:41.600Z,14.90
2023-03-10T01:09:08.989Z,13.10
2023-03-10T01:11:36.948Z,14.70
2023-03-10T01:14:07.616Z,20.80
2023-03-10T01:16:35.232Z,13.30
2023-03-10T01:19:02.753Z,12.90
2023-03-10T01:21:34.892Z,11.70
2023-03-10T01:24:03.360Z,7.80
2023-03-10T01:26:31.428Z,12.00
2023-03-10T01:28:59.620Z,12.70
2023-03-10T01:31:27.230Z,12.10
2023-03-10T01:33:55.126Z,11.30
2023-03-10T01:36:26.758Z,12.40
2023-03-10T01:38:56.590Z,10.80
2023-03-10T01:41:25.055Z,12.00
2023-03-10T01:43:55.762Z,10.90
2023-03-10T01:46:32.093Z,11.00
2023-03-10T01:49:16.239Z,9.00
2023-03-10T01:51:49.167Z,11.90
2023-03-10T01:54:24.997Z,11.50
2023-03-10T01:56:54.014Z,11.10
2023-03-10T01:59:22.348Z,12.20
2023-03-10T02:01:52.434Z,12.90
2023-03-10T02:04:34.766Z,9.10
2023-03-10T02:07:05.730Z,15.60
2023-03-10T02:09:38.081Z,11.30
2023-03-10T02:12:06.543Z,14.20
2023-03-10T02:14:35.847Z,20.60
2023-03-10T02:17:07.838Z,14.40
2023-03-10T02:19:55.288Z,10.30
2023-03-10T02:22:22.963Z,15.20
2023-03-10T02:24:56.316Z,12.00
2023-03-10T02:27:28.036Z,16.50
2023-03-10T02:30:43.517Z,17.40
2023-03-10T02:33:25.993Z,16.00
2023-03-10T02:35:53.953Z,18.80
2023-03-10T02:38:21.705Z,14.10
2023-03-10T02:40:52.002Z,18.30
2023-03-10T02:43:26.303Z,15.40
2023-03-10T02:45:58.858Z,13.70
2023-03-10T02:48:36.579Z,16.10
2023-03-10T02:51:10.166Z,13.40
2023-03-10T02:53:37.528Z,11.80
2023-03-10T02:56:05.508Z,15.80
2023-03-10T02:58:33.396Z,14.50
2023-03-10T03:01:01.195Z,16.10
2023-03-10T03:03:28.577Z,11.70
2023-03-10T03:05:56.058Z,13.90
2023-03-10T03:08:24.054Z,9.90
2023-03-10T03:10:52.762Z,8.00
2023-03-10T03:13:20.387Z,10.10
2023-03-10T03:15:48.756Z,10.30
2023-03-10T03:18:16.109Z,8.50
2023-03-10T03:20:43.920Z,10.90
2023-03-10T03:23:11.436Z,9.90
2023-03-10T03:25:41.053Z,10.30
2023-03-10T03:28:10.907Z,10.80
2023-03-10T03:30:38.350Z,10.40
2023-03-10T03:33:07.241Z,10.80
2023-03-10T03:35:37.620Z,11.20
2023-03-10T03:38:06.442Z,13.80
2023-03-10T03:40:36.005Z,13.40
2023-03-10T03:43:04.278Z,14.40
2023-03-10T03:45:32.517Z,11.10
2023-03-10T03:48:00.381Z,9.40
2023-03-10T03:50:28.350Z,14.30
2023-03-10T03:52:55.746Z,11.70
2023-03-10T03:55:23.198Z,16.20
2023-03-10T03:57:50.787Z,17.40
2023-03-10T04:00:22.701Z,15.30
2023-03-10T04:02:50.533Z,16.60
2023-03-10T04:05:18.484Z,17.00
2023-03-10T04:07:48.191Z,18.60
2023-03-10T04:10:19.145Z,15.70
2023-03-10T04:12:46.600Z,16.10
2023-03-10T04:15:14.498Z,19.90
2023-03-10T04:17:42.139Z,22.60
2023-03-10T04:20:11.742Z,19.80
2023-03-10T04:22:39.355Z,16.90
2023-03-10T04:25:08.048Z,16.50
2023-03-10T04:27:36.060Z,21.20
2023-03-10T04:30:05.233Z,20.30
2023-03-10T04:32:33.156Z,24.60
2023-03-10T04:35:01.634Z,16.70
2023-03-10T04:37:29.108Z,18.40
2023-03-10T04:39:57.277Z,16.40
2023-03-10T04:42:26.777Z,19.30
2023-03-10T04:44:54.201Z,13.30
2023-03-10T04:47:21.673Z,11.90
2023-03-10T04:49:49.092Z,14.40
2023-03-10T04:52:16.955Z,15.90
2023-03-10T04:54:44.364Z,14.20
2023-03-10T04:57:11.786Z,11.50
2023-03-10T04:59:39.234Z,14.00
2023-03-10T05:02:06.693Z,11.60
2023-03-10T05:04:34.103Z,8.30
2023-03-10T05:07:01.624Z,12.40
2023-03-10T05:09:28.943Z,11.90
2023-03-10T05:11:56.349Z,10.90
2023-03-10T05:14:23.759Z,8.90
2023-03-10T05:16:51.222Z,11.00
2023-03-10T05:19:19.061Z,6.20
2023-03-10T05:21:46.549Z,7.60
2023-03-10T05:24:14.201Z,7.10
2023-03-10T05:26:42.075Z,6.00
2023-03-10T05:29:09.402Z,4.90
2023-03-10T05:31:36.934Z,6.70
2023-03-10T05:34:05.067Z,6.50
2023-03-10T05:36:32.471Z,4.50
2023-03-10T05:39:00.571Z,9.50
2023-03-10T05:41:28.075Z,3.80
2023-03-10T05:43:55.907Z,6.10
2023-03-10T05:46:23.765Z,3.50
2023-03-10T05:48:51.275Z,3.40
2023-03-10T05:51:19.028Z,3.10
2023-03-10T05:53:46.978Z,5.20
2023-03-10T05:56:18.875Z,6.80
2023-03-10T05:58:47.413Z,4.20
2023-03-10T06:01:15.010Z,4.30
2023-03-10T06:03:44.540Z,9.30
2023-03-10T06:06:12.661Z,5.80
2023-03-10T06:08:40.442Z,6.10
2023-03-10T06:11:07.901Z,5.40
2023-03-10T06:13:35.665Z,5.20
2023-03-10T06:16:06.615Z,3.80
2023-03-10T06:18:35.061Z,5.80
2023-03-10T06:21:15.142Z,4.40
2023-03-10T06:23:42.578Z,3.30
2023-03-10T06:26:15.929Z,2.30
2023-03-10T06:28:46.382Z,5.10
2023-03-10T06:31:19.436Z,6.00
2023-03-10T06:33:47.485Z,2.60
2023-03-10T06:36:16.610Z,3.60
2023-03-10T06:38:44.490Z,3.30
2023-03-10T06:41:12.560Z,5.40
2023-03-10T06:43:40.459Z,4.00
2023-03-10T06:46:10.083Z,3.30
2023-03-10T06:48:39.413Z,3.70
2023-03-10T06:51:10.022Z,2.90
2023-03-10T06:53:37.658Z,4.00
2023-03-10T06:56:10.876Z,5.00
2023-03-10T06:58:38.721Z,2.40
2023-03-10T07:01:08.187Z,1.50
2023-03-10T07:03:36.576Z,3.00
2023-03-10T07:06:05.030Z,2.50
2023-03-10T07:08:32.377Z,1.00
2023-03-10T07:10:59.813Z,1.70
2023-03-10T07:13:27.369Z,3.90
2023-03-10T07:15:54.779Z,2.90
2023-03-10T07:18:22.489Z,1.80
2023-03-10T07:20:51.008Z,2.40
2023-03-10T07:23:18.501Z,3.00
2023-03-10T07:25:46.226Z,4.40
2023-03-10T07:28:13.724Z,2.50
2023-03-10T07:30:41.212Z,2.10
2023-03-10T07:33:08.802Z,1.30
2023-03-10T07:35:37.340Z,1.80
2023-03-10T07:38:05.165Z,1.50
2023-03-10T07:40:32.827Z,2.80
2023-03-10T07:43:00.495Z,1.90
2023-03-10T07:45:28.376Z,4.20
2023-03-10T07:47:55.771Z,1.90
2023-03-10T07:50:23.219Z,1.70
2023-03-10T07:52:50.822Z,2.60
2023-03-10T07:55:18.845Z,1.90
2023-03-10T07:57:46.339Z,1.80
2023-03-10T08:00:15.513Z,2.00
2023-03-10T08:02:43.168Z,1.10
2023-03-10T08:05:11.536Z,2.00
2023-03-10T08:07:39.166Z,2.60
2023-03-10T08:10:07.857Z,2.10
2023-03-10T08:12:35.708Z,2.40
2023-03-10T08:15:04.847Z,7.40
2023-03-10T08:17:33.508Z,3.80
2023-03-10T08:20:01.261Z,1.90
2023-03-10T08:22:28.899Z,3.00
2023-03-10T08:24:56.387Z,1.80
2023-03-10T08:27:23.839Z,5.80
2023-03-10T08:29:51.765Z,3.80
2023-03-10T08:32:20.169Z,2.10
2023-03-10T08:34:47.728Z,2.20
2023-03-10T08:37:15.176Z,3.40
2023-03-10T08:39:42.525Z,3.00
2023-03-10T08:42:14.091Z,3.50
2023-03-10T08:44:42.056Z,5.50
2023-03-10T08:47:09.803Z,3.00
2023-03-10T08:49:37.431Z,3.80
2023-03-10T08:52:05.248Z,3.70
2023-03-10T08:54:32.856Z,2.70
2023-03-10T08:57:01.186Z,4.70
2023-03-10T08:59:28.845Z,5.20
2023-03-10T09:01:56.265Z,3.60
2023-03-10T09:04:23.751Z,5.60
2023-03-10T09:06:51.399Z,4.10
2023-03-10T09:09:19.106Z,4.50
2023-03-10T09:11:46.644Z,3.50
2023-03-10T09:14:17.027Z,5.30
2023-03-10T09:16:45.054Z,4.50
2023-03-10T09:19:12.496Z,4.10
2023-03-10T09:21:41.511Z,3.90
2023-03-10T09:24:09.367Z,3.90
2023-03-10T09:26:36.817Z,4.00
2023-03-10T09:29:04.918Z,4.90
2023-03-10T09:31:36.085Z,2.80
2023-03-10T09:34:04.590Z,5.10
2023-03-10T09:36:32.900Z,3.40
2023-03-10T09:39:01.091Z,6.40
2023-03-10T09:41:46.696Z,5.10
2023-03-10T09:44:52.715Z,3.00
2023-03-10T09:48:21.626Z,3.50
2023-03-10T09:50:56.726Z,4.20
2023-03-10T09:53:40.930Z,2.70
2023-03-10T09:56:17.710Z,4.60
2023-03-10T09:58:54.527Z,4.60
2023-03-10T10:01:27.723Z,4.60
2023-03-10T10:04:01.282Z,7.30
2023-03-10T10:06:34.911Z,5.40
2023-03-10T10:09:29.283Z,4.60
2023-03-10T10:11:56.703Z,4.60
2023-03-10T10:14:31.062Z,7.60
2023-03-10T10:17:32.512Z,5.50
2023-03-10T10:20:06.504Z,4.40
2023-03-10T10:22:38.078Z,7.80
2023-03-10T10:25:08.660Z,5.00
2023-03-10T10:27:37.732Z,6.50
2023-03-10T10:30:37.442Z,8.70
2023-03-10T10:33:11.371Z,6.30
2023-03-10T10:35:43.209Z,6.40
2023-03-10T10:38:10.629Z,11.20
2023-03-10T10:41:09.988Z,8.00
2023-03-10T10:43:45.156Z,7.10
2023-03-10T10:46:16.155Z,11.00
2023-03-10T10:48:49.183Z,5.20
2023-03-10T10:51:29.292Z,7.50
2023-03-10T10:54:04.473Z,7.90
2023-03-10T10:56:32.460Z,12.10
2023-03-10T10:59:11.602Z,5.90
2023-03-10T11:02:04.439Z,9.80
2023-03-10T11:04:46.667Z,12.30
2023-03-10T11:07:24.766Z,6.50
2023-03-10T11:09:52.377Z,7.30
2023-03-10T11:12:25.117Z,7.50
2023-03-10T11:15:30.104Z,8.10
2023-03-10T11:18:25.419Z,9.20
2023-03-10T11:21:14.705Z,7.10
2023-03-10T11:24:01.818Z,9.00
2023-03-10T11:27:00.797Z,10.80
2023-03-10T11:30:05.060Z,11.40
2023-03-10T11:32:49.814Z,7.70
2023-03-10T11:35:31.429Z,8.50
2023-03-10T11:38:37.681Z,10.20
2023-03-10T11:41:20.557Z,9.00
2023-03-10T11:43:58.372Z,9.40
2023-03-10T11:46:44.611Z,8.60
2023-03-10T11:49:15.400Z,13.00
2023-03-10T11:51:47.538Z,11.60
2023-03-10T11:54:27.189Z,12.50
2023-03-10T11:56:56.396Z,10.60
2023-03-10T11:59:29.522Z,12.10
2023-03-10T12:02:24.629Z,9.00
2023-03-10T12:05:08.614Z,11.20
2023-03-10T12:07:43.461Z,7.50
2023-03-10T12:10:13.817Z,6.70
2023-03-10T12:12:45.303Z,9.40
2023-03-10T12:15:24.207Z,8.70
2023-03-10T12:17:53.965Z,8.80
2023-03-10T12:20:21.382Z,8.60
2023-03-10T12:22:53.196Z,7.80
2023-03-10T12:25:30.032Z,10.20
2023-03-10T12:28:16.379Z,11.40
2023-03-10T12:31:07.443Z,9.90
2023-03-10T12:33:38.151Z,7.20
2023-03-10T12:36:32.822Z,10.50
2023-03-10T12:39:25.131Z,5.30
2023-03-10T12:41:55.489Z,7.70
2023-03-10T12:44:32.784Z,9.10
2023-03-10T12:47:09.327Z,11.50
2023-03-10T12:49:58.515Z,8.40
2023-03-10T12:52:57.584Z,14.10
2023-03-10T12:55:27.924Z,5.50
2023-03-10T12:58:21.791Z,5.00
2023-03-10T13:01:07.248Z,4.30
2023-03-10T13:03:43.365Z,5.50
2023-03-10T13:06:11.073Z,3.50
2023-03-10T13:08:45.196Z,8.60
2023-03-10T13:11:35.894Z,9.40
2023-03-10T13:14:13.920Z,5.90
2023-03-10T13:16:46.377Z,3.20
2023-03-10T13:19:22.005Z,5.00
2023-03-10T13:21:51.076Z,3.40
2023-03-10T13:24:23.774Z,2.40
2023-03-10T13:27:15.912Z,2.90
2023-03-10T13:29:59.505Z,5.50
2023-03-10T13:32:27.200Z,4.40
2023-03-10T13:34:56.563Z,4.50
2023-03-10T13:37:25.040Z,4.60
2023-03-10T13:39:52.690Z,5.80
2023-03-10T13:42:28.375Z,5.10
2023-03-10T13:45:23.256Z,3.90
2023-03-10T13:47:52.756Z,5.60
2023-03-10T13:50:20.816Z,4.70
2023-03-10T13:52:54.746Z,5.80
2023-03-10T13:55:22.244Z,7.20
2023-03-10T13:57:50.958Z,3.90
2023-03-10T14:00:21.771Z,4.90
2023-03-10T14:02:51.405Z,4.60
2023-03-10T14:05:41.224Z,3.80
2023-03-10T14:08:28.343Z,4.20
2023-03-10T14:11:32.238Z,4.30
2023-03-10T14:14:01.570Z,3.40
2023-03-10T14:16:52.038Z,2.40
2023-03-10T14:19:41.393Z,3.60
2023-03-10T14:22:36.927Z,2.60
2023-03-10T14:25:24.442Z,3.50
2023-03-10T14:30:44.155Z,3.70
2023-03-10T14:33:15.319Z,2.90
2023-03-10T14:35:44.061Z,3.10
2023-03-10T14:38:11.844Z,2.40
2023-03-10T14:40:43.140Z,2.20
2023-03-10T14:43:17.211Z,3.70
2023-03-10T14:45:46.644Z,3.50
2023-03-10T14:48:20.816Z,3.70
2023-03-10T14:50:48.927Z,5.80
2023-03-10T14:53:21.249Z,3.00
2023-03-10T14:55:52.258Z,4.30
2023-03-10T14:58:30.911Z,3.00
2023-03-10T15:00:59.477Z,4.70
2023-03-10T15:03:27.973Z,5.80
2023-03-10T15:05:55.382Z,3.60
2023-03-10T15:08:22.829Z,3.30
2023-03-10T15:10:52.044Z,2.80
2023-03-10T15:13:23.191Z,5.40
2023-03-10T15:15:50.948Z,3.80
2023-03-10T15:18:22.191Z,2.80
2023-03-10T15:20:49.831Z,3.70
2023-03-10T15:23:20.002Z,3.20
2023-03-10T15:25:48.498Z,2.80
2023-03-10T15:28:16.105Z,3.70
2023-03-10T15:30:44.162Z,2.60
2023-03-10T15:33:11.899Z,6.20
2023-03-10T15:35:40.351Z,3.20
2023-03-10T15:38:08.258Z,4.40
2023-03-10T15:40:36.186Z,3.50
2023-03-10T15:43:03.650Z,4.10
2023-03-10T15:45:32.418Z,5.00
2023-03-10T15:48:00.000Z,3.20
2023-03-10T15:50:27.938Z,3.30
2023-03-10T15:52:58.383Z,2.90
2023-03-10T15:55:28.552Z,3.30
2023-03-10T15:57:56.718Z,4.20
2023-03-10T16:00:26.004Z,3.70
2023-03-10T16:02:53.809Z,3.00
2023-03-10T16:05:21.734Z,4.70
2023-03-10T16:07:49.499Z,3.10
2023-03-10T16:10:20.556Z,3.30
2023-03-10T16:12:48.111Z,4.90
2023-03-10T16:15:18.225Z,3.80
2023-03-10T16:17:46.039Z,3.80
2023-03-10T16:20:14.029Z,5.40
2023-03-10T16:22:43.043Z,3.90
2023-03-10T16:25:16.109Z,3.70
2023-03-10T16:27:45.710Z,4.80
2023-03-10T16:30:17.015Z,3.50
2023-03-10T16:35:18.079Z,3.50
2023-03-10T16:37:45.626Z,3.40
2023-03-10T16:40:13.555Z,8.50
2023-03-10T16:42:45.527Z,3.30
2023-03-10T16:45:13.595Z,4.60
2023-03-10T16:47:44.192Z,4.90
2023-03-10T16:50:14.151Z,5.20
2023-03-10T16:52:42.831Z,4.90
2023-03-10T16:55:18.867Z,3.40
2023-03-10T16:57:46.537Z,3.40
2023-03-10T17:00:15.432Z,5.00
2023-03-10T17:02:42.928Z,6.90
2023-03-10T17:05:10.415Z,7.00
2023-03-10T17:07:46.361Z,5.60
2023-03-10T17:10:17.276Z,5.50
2023-03-10T17:12:44.694Z,6.60
2023-03-10T17:15:12.760Z,5.10
2023-03-10T17:17:40.130Z,4.00
2023-03-10T17:20:08.559Z,4.10
2023-03-10T17:22:37.941Z,4.60
2023-03-10T17:25:07.262Z,6.90
2023-03-10T17:27:34.671Z,6.80
2023-03-10T17:30:02.222Z,5.30
2023-03-10T17:32:30.825Z,6.90
2023-03-10T17:34:58.611Z,10.50
2023-03-10T17:37:25.964Z,5.10
2023-03-10T17:39:54.564Z,5.10
2023-03-10T17:42:22.676Z,5.40
2023-03-10T17:44:50.184Z,4.30
2023-03-10T17:47:17.736Z,4.90
2023-03-10T17:49:45.582Z,6.60
2023-03-10T17:52:13.270Z,4.20
2023-03-10T17:54:41.097Z,5.40
2023-03-10T17:57:08.745Z,5.20
2023-03-10T17:59:39.317Z,4.80
2023-03-10T18:02:06.804Z,4.50
2023-03-10T18:04:36.466Z,6.50
2023-03-10T18:07:03.828Z,6.90
2023-03-10T18:09:31.496Z,3.20
2023-03-10T18:11:58.918Z,4.60
2023-03-10T18:14:26.667Z,6.30
2023-03-10T18:16:54.049Z,9.90
2023-03-10T18:19:21.723Z,5.70
2023-03-10T18:21:49.728Z,5.30
2023-03-10T18:24:17.501Z,5.90
2023-03-10T18:26:45.752Z,5.10
2023-03-10T18:29:14.440Z,5.50
2023-03-10T18:31:42.131Z,8.90
2023-03-10T18:34:10.370Z,4.80
2023-03-10T18:36:38.046Z,6.90
2023-03-10T18:39:07.802Z,5.20
2023-03-10T18:41:35.925Z,6.50
2023-03-10T18:44:04.786Z,5.20
2023-03-10T18:46:32.220Z,6.40
2023-03-10T18:48:59.690Z,5.30
2023-03-10T18:51:28.494Z,4.60
2023-03-10T18:53:56.657Z,7.30
2023-03-10T18:56:26.057Z,4.60
2023-03-10T18:58:53.762Z,6.10
2023-03-10T19:01:21.569Z,6.20
2023-03-10T19:03:49.095Z,6.90
2023-03-10T19:06:16.475Z,7.30
2023-03-10T19:08:44.090Z,4.90
2023-03-10T19:11:11.994Z,5.70
2023-03-10T19:13:40.645Z,5.80
2023-03-10T19:16:10.374Z,5.50
2023-03-10T19:18:38.447Z,6.40
2023-03-10T19:21:06.795Z,7.40
2023-03-10T19:23:35.053Z,6.50
2023-03-10T19:26:03.171Z,7.30
2023-03-10T19:28:31.487Z,6.50
2023-03-10T19:30:59.491Z,5.20
2023-03-10T19:33:27.269Z,7.10
2023-03-10T19:36:06.944Z,7.30
2023-03-10T19:38:36.660Z,7.30
2023-03-10T19:41:06.231Z,5.90
2023-03-10T19:43:33.561Z,8.20
2023-03-10T19:46:03.092Z,7.50
2023-03-10T19:48:30.747Z,8.60
2023-03-10T19:51:00.352Z,7.10
2023-03-10T19:53:30.012Z,6.70
2023-03-10T19:56:01.052Z,8.00
2023-03-10T19:58:28.691Z,6.30
2023-03-10T20:00:58.261Z,6.70
2023-03-10T20:03:28.921Z,8.50
2023-03-10T20:05:57.026Z,6.30
2023-03-10T20:08:24.794Z,7.10
2023-03-10T20:10:52.314Z,6.30
2023-03-10T20:13:19.813Z,6.40
2023-03-10T20:15:47.210Z,5.00
2023-03-10T20:18:18.398Z,5.50
2023-03-10T20:20:45.773Z,7.00
2023-03-10T20:23:15.020Z,8.50
2023-03-10T20:25:42.755Z,8.00
2023-03-10T20:28:11.152Z,7.90
2023-03-10T20:30:39.939Z,8.90
2023-03-10T20:33:08.297Z,5.20
2023-03-10T20:35:38.210Z,7.30
2023-03-10T20:38:05.778Z,7.20
2023-03-10T20:40:33.207Z,7.70
2023-03-10T20:43:00.594Z,10.10
2023-03-10T20:45:28.196Z,7.70
2023-03-10T20:47:56.212Z,11.50
2023-03-10T20:50:24.388Z,10.20
2023-03-10T20:52:53.016Z,7.60
2023-03-10T20:55:27.058Z,7.00
2023-03-10T20:57:56.992Z,5.50
2023-03-10T21:00:27.708Z,7.70
2023-03-10T21:02:57.343Z,7.80
2023-03-10T21:05:27.128Z,9.30
2023-03-10T21:07:55.101Z,6.40
2023-03-10T21:10:23.361Z,12.20
2023-03-10T21:12:50.922Z,8.60
2023-03-10T21:15:19.603Z,6.50
2023-03-10T21:17:47.574Z,6.50
2023-03-10T21:20:20.533Z,7.70
2023-03-10T21:22:48.409Z,7.20
2023-03-10T21:25:21.902Z,7.30
2023-03-10T21:27:53.240Z,9.60
2023-03-10T21:30:23.547Z,7.90
2023-03-10T21:32:51.092Z,7.30
2023-03-10T21:35:18.640Z,6.40
2023-03-10T21:37:49.495Z,9.20
2023-03-10T21:40:20.321Z,10.20
2023-03-10T21:42:49.283Z,8.70
2023-03-10T21:45:20.829Z,9.00
2023-03-10T21:47:48.589Z,7.90
2023-03-10T21:50:16.612Z,7.80
2023-03-10T21:52:44.995Z,8.20
2023-03-10T21:55:21.440Z,6.70
2023-03-10T21:57:49.660Z,7.60
2023-03-10T22:00:20.089Z,8.20
2023-03-10T22:02:47.746Z,6.30
2023-03-10T22:05:17.442Z,6.80
2023-03-10T22:07:45.242Z,6.30
2023-03-10T22:10:14.114Z,7.40
2023-03-10T22:12:41.852Z,6.00
2023-03-10T22:15:18.674Z,6.40
2023-03-10T22:17:46.526Z,6.20
2023-03-10T22:20:24.010Z,7.40
2023-03-10T22:22:52.284Z,5.60
2023-03-10T22:25:20.426Z,6.80
2023-03-10T22:27:54.898Z,6.80
2023-03-10T22:30:25.479Z,7.00
2023-03-10T22:32:54.131Z,7.60
2023-03-10T22:35:22.431Z,8.00
2023-03-10T22:37:51.501Z,6.50
2023-03-10T22:40:23.064Z,6.70
2023-03-10T22:42:50.484Z,8.60
2023-03-10T22:45:24.137Z,8.00
2023-03-10T22:47:58.865Z,8.50
2023-03-10T22:50:46.746Z,6.20
2023-03-10T22:53:17.723Z,7.10
2023-03-10T22:55:46.547Z,6.60
2023-03-10T22:58:16.301Z,6.90
2023-03-10T23:00:44.704Z,5.40
2023-03-10T23:03:13.906Z,5.90
2023-03-10T23:05:41.718Z,5.70
2023-03-10T23:08:09.137Z,6.90
2023-03-10T23:10:38.155Z,7.30
2023-03-10T23:13:10.629Z,7.60
2023-03-10T23:15:38.547Z,8.60
2023-03-10T23:18:07.488Z,8.80
2023-03-10T23:20:43.708Z,8.00
2023-03-10T23:23:14.723Z,8.60
2023-03-10T23:25:47.198Z,7.30
2023-03-10T23:28:16.291Z,7.20
2023-03-10T23:30:46.873Z,6.50
2023-03-10T23:33:18.473Z,6.60
2023-03-10T23:35:50.304Z,7.80
2023-03-10T23:38:17.839Z,8.10
2023-03-10T23:40:45.298Z,9.20
2023-03-10T23:43:13.480Z,8.40
2023-03-10T23:45:41.262Z,9.30
2023-03-10T23:48:16.090Z,9.50
2023-03-10T23:50:46.064Z,11.50
2023-03-10T23:53:16.338Z,8.50
2023-03-10T23:55:46.847Z,8.00
2023-03-10T23:58:16.710Z,7.90
